Waterloo, Texas
Current Conditions -  °F | °C
As of 5:58 PM on Thursday 27 Nov 2014 (Local Time) from KGRK Reporting Station
Clear Clear  
Wind Chill: 52°   Ceiling: Unl
Heat Index: 52°   Visibility: 10mi
Dew Point: 30°   Wind: 5mph
Humidity: 43%   Direction: 130°SE
Pressure: 30.4"   Gusts: NA
Location:  30.5793°N, 97.5096°W
Report Text: KGRK 272358Z AUTO 13004KT 10SM CLR 11/M01 A3040 RMK AO2 SLP299 T01091013 10154 20109 56006
Loading
Personal Weather Stations






























Interactive Weather Map New forecast layout! Learn more

10-Day Weather Forecast

Advertisements
Track Severe Weather on mobile